sensor_id;sensor_type;location;lat;lon;timestamp;P1;durP1;ratioP1;P2;durP2;ratioP2
75548;SDS011;64133;56.002;37.208;2023-09-19T00:02:10;6.55;;;3.80;;
75548;SDS011;64133;56.002;37.208;2023-09-19T00:07:15;8.70;;;4.15;;
75548;SDS011;64133;56.002;37.208;2023-09-19T00:12:19;5.75;;;3.55;;
75548;SDS011;64133;56.002;37.208;2023-09-19T00:17:24;5.95;;;3.87;;
75548;SDS011;64133;56.002;37.208;2023-09-19T00:22:29;4.20;;;2.95;;
75548;SDS011;64133;56.002;37.208;2023-09-19T00:27:33;6.25;;;3.22;;
75548;SDS011;64133;56.002;37.208;2023-09-19T00:32:38;6.72;;;3.92;;
75548;SDS011;64133;56.002;37.208;2023-09-19T00:37:43;8.50;;;4.15;;
75548;SDS011;64133;56.002;37.208;2023-09-19T00:42:48;7.25;;;4.10;;
75548;SDS011;64133;56.002;37.208;2023-09-19T00:47:52;5.87;;;3.27;;
75548;SDS011;64133;56.002;37.208;2023-09-19T00:52:57;5.10;;;2.92;;
75548;SDS011;64133;56.002;37.208;2023-09-19T00:58:02;7.42;;;4.10;;
75548;SDS011;64133;56.002;37.208;2023-09-19T01:03:06;6.30;;;4.05;;
75548;SDS011;64133;56.002;37.208;2023-09-19T01:08:11;4.85;;;2.80;;
75548;SDS011;64133;56.002;37.208;2023-09-19T01:13:18;9.30;;;4.00;;
75548;SDS011;64133;56.002;37.208;2023-09-19T01:18:26;6.08;;;3.27;;
75548;SDS011;64133;56.002;37.208;2023-09-19T01:23:31;7.45;;;3.80;;
75548;SDS011;64133;56.002;37.208;2023-09-19T01:28:36;8.75;;;3.83;;
75548;SDS011;64133;56.002;37.208;2023-09-19T01:33:58;5.45;;;3.45;;
75548;SDS011;64133;56.002;37.208;2023-09-19T01:39:02;8.15;;;3.55;;
75548;SDS011;64133;56.002;37.208;2023-09-19T01:44:09;7.00;;;3.67;;
75548;SDS011;64133;56.002;37.208;2023-09-19T01:49:18;10.93;;;3.45;;
75548;SDS011;64133;56.002;37.208;2023-09-19T01:54:26;6.95;;;4.47;;
75548;SDS011;64133;56.002;37.208;2023-09-19T01:59:32;5.55;;;3.85;;
75548;SDS011;64133;56.002;37.208;2023-09-19T02:04:37;7.87;;;3.58;;
75548;SDS011;64133;56.002;37.208;2023-09-19T02:09:41;7.72;;;4.08;;
75548;SDS011;64133;56.002;37.208;2023-09-19T02:14:46;6.22;;;3.58;;
75548;SDS011;64133;56.002;37.208;2023-09-19T02:19:51;6.78;;;3.40;;
75548;SDS011;64133;56.002;37.208;2023-09-19T02:24:55;7.03;;;3.92;;
75548;SDS011;64133;56.002;37.208;2023-09-19T02:30:01;6.92;;;3.55;;
75548;SDS011;64133;56.002;37.208;2023-09-19T02:35:08;8.28;;;3.45;;
75548;SDS011;64133;56.002;37.208;2023-09-19T02:40:13;7.83;;;4.80;;
75548;SDS011;64133;56.002;37.208;2023-09-19T02:45:21;6.35;;;3.60;;
75548;SDS011;64133;56.002;37.208;2023-09-19T02:50:26;5.25;;;3.42;;
75548;SDS011;64133;56.002;37.208;2023-09-19T02:55:31;7.97;;;4.10;;
75548;SDS011;64133;56.002;37.208;2023-09-19T03:00:36;10.05;;;4.45;;
75548;SDS011;64133;56.002;37.208;2023-09-19T03:05:41;5.90;;;3.33;;
75548;SDS011;64133;56.002;37.208;2023-09-19T03:10:47;7.08;;;3.47;;
75548;SDS011;64133;56.002;37.208;2023-09-19T03:15:53;8.20;;;4.03;;
75548;SDS011;64133;56.002;37.208;2023-09-19T03:20:58;11.45;;;4.22;;
75548;SDS011;64133;56.002;37.208;2023-09-19T03:26:03;6.95;;;3.98;;
75548;SDS011;64133;56.002;37.208;2023-09-19T03:31:08;9.13;;;4.85;;
75548;SDS011;64133;56.002;37.208;2023-09-19T03:36:13;8.65;;;5.00;;
75548;SDS011;64133;56.002;37.208;2023-09-19T03:41:17;11.50;;;4.10;;
75548;SDS011;64133;56.002;37.208;2023-09-19T03:46:22;8.98;;;5.33;;
75548;SDS011;64133;56.002;37.208;2023-09-19T03:51:27;8.23;;;4.15;;
75548;SDS011;64133;56.002;37.208;2023-09-19T03:56:31;11.90;;;4.67;;
75548;SDS011;64133;56.002;37.208;2023-09-19T04:01:36;9.48;;;5.15;;
75548;SDS011;64133;56.002;37.208;2023-09-19T04:06:40;5.97;;;3.55;;
75548;SDS011;64133;56.002;37.208;2023-09-19T04:11:45;8.58;;;4.47;;
75548;SDS011;64133;56.002;37.208;2023-09-19T04:16:50;7.87;;;4.17;;
75548;SDS011;64133;56.002;37.208;2023-09-19T04:21:55;14.40;;;4.75;;
75548;SDS011;64133;56.002;37.208;2023-09-19T04:27:00;8.23;;;4.55;;
75548;SDS011;64133;56.002;37.208;2023-09-19T04:32:05;9.95;;;5.42;;
75548;SDS011;64133;56.002;37.208;2023-09-19T04:37:10;6.22;;;4.03;;
75548;SDS011;64133;56.002;37.208;2023-09-19T04:42:15;9.48;;;5.37;;
75548;SDS011;64133;56.002;37.208;2023-09-19T04:47:19;8.55;;;4.33;;
75548;SDS011;64133;56.002;37.208;2023-09-19T04:52:24;7.78;;;4.62;;
75548;SDS011;64133;56.002;37.208;2023-09-19T04:57:29;7.72;;;4.67;;
75548;SDS011;64133;56.002;37.208;2023-09-19T05:02:34;8.75;;;4.70;;
75548;SDS011;64133;56.002;37.208;2023-09-19T05:07:39;7.10;;;3.80;;
75548;SDS011;64133;56.002;37.208;2023-09-19T05:12:44;7.87;;;4.90;;
75548;SDS011;64133;56.002;37.208;2023-09-19T05:17:48;8.58;;;4.95;;
75548;SDS011;64133;56.002;37.208;2023-09-19T05:22:58;14.35;;;5.40;;
75548;SDS011;64133;56.002;37.208;2023-09-19T05:28:04;9.08;;;5.08;;
75548;SDS011;64133;56.002;37.208;2023-09-19T05:33:09;8.30;;;5.08;;
75548;SDS011;64133;56.002;37.208;2023-09-19T05:38:13;10.30;;;5.47;;
75548;SDS011;64133;56.002;37.208;2023-09-19T05:43:18;11.12;;;6.55;;
75548;SDS011;64133;56.002;37.208;2023-09-19T05:48:23;14.05;;;6.45;;
75548;SDS011;64133;56.002;37.208;2023-09-19T05:53:28;11.00;;;6.92;;
75548;SDS011;64133;56.002;37.208;2023-09-19T05:58:32;9.85;;;6.53;;
75548;SDS011;64133;56.002;37.208;2023-09-19T06:03:37;11.63;;;6.70;;
75548;SDS011;64133;56.002;37.208;2023-09-19T06:08:42;10.72;;;6.55;;
75548;SDS011;64133;56.002;37.208;2023-09-19T06:13:47;15.25;;;6.00;;
75548;SDS011;64133;56.002;37.208;2023-09-19T06:18:52;10.08;;;6.78;;
75548;SDS011;64133;56.002;37.208;2023-09-19T06:23:56;13.43;;;7.22;;
75548;SDS011;64133;56.002;37.208;2023-09-19T06:29:01;16.23;;;8.28;;
75548;SDS011;64133;56.002;37.208;2023-09-19T06:34:09;13.43;;;6.90;;
75548;SDS011;64133;56.002;37.208;2023-09-19T06:39:14;9.98;;;6.65;;
75548;SDS011;64133;56.002;37.208;2023-09-19T06:44:18;14.60;;;7.75;;
75548;SDS011;64133;56.002;37.208;2023-09-19T06:49:23;12.43;;;7.00;;
75548;SDS011;64133;56.002;37.208;2023-09-19T06:54:28;14.85;;;7.65;;
75548;SDS011;64133;56.002;37.208;2023-09-19T06:59:33;20.35;;;8.95;;
75548;SDS011;64133;56.002;37.208;2023-09-19T07:04:39;16.12;;;8.18;;
75548;SDS011;64133;56.002;37.208;2023-09-19T07:09:44;19.12;;;9.30;;
75548;SDS011;64133;56.002;37.208;2023-09-19T07:14:49;13.62;;;7.97;;
75548;SDS011;64133;56.002;37.208;2023-09-19T07:19:54;18.17;;;8.80;;
75548;SDS011;64133;56.002;37.208;2023-09-19T07:24:58;17.32;;;8.23;;
75548;SDS011;64133;56.002;37.208;2023-09-19T07:30:03;16.27;;;8.83;;
75548;SDS011;64133;56.002;37.208;2023-09-19T07:35:09;14.93;;;8.13;;
75548;SDS011;64133;56.002;37.208;2023-09-19T07:40:15;14.85;;;7.80;;
75548;SDS011;64133;56.002;37.208;2023-09-19T07:45:20;18.23;;;8.85;;
75548;SDS011;64133;56.002;37.208;2023-09-19T07:50:24;14.98;;;8.80;;
75548;SDS011;64133;56.002;37.208;2023-09-19T07:55:29;15.08;;;8.53;;
75548;SDS011;64133;56.002;37.208;2023-09-19T08:00:35;18.23;;;8.80;;
75548;SDS011;64133;56.002;37.208;2023-09-19T08:05:40;15.00;;;8.63;;
75548;SDS011;64133;56.002;37.208;2023-09-19T08:10:45;17.00;;;8.50;;
75548;SDS011;64133;56.002;37.208;2023-09-19T08:15:50;21.97;;;9.25;;
75548;SDS011;64133;56.002;37.208;2023-09-19T08:20:55;19.02;;;9.58;;
75548;SDS011;64133;56.002;37.208;2023-09-19T08:26:00;20.37;;;9.33;;
75548;SDS011;64133;56.002;37.208;2023-09-19T08:31:06;19.07;;;10.25;;
75548;SDS011;64133;56.002;37.208;2023-09-19T08:36:10;17.00;;;9.40;;
75548;SDS011;64133;56.002;37.208;2023-09-19T08:41:17;19.00;;;9.93;;
75548;SDS011;64133;56.002;37.208;2023-09-19T08:46:20;19.23;;;9.58;;
75548;SDS011;64133;56.002;37.208;2023-09-19T08:51:25;18.65;;;9.28;;
75548;SDS011;64133;56.002;37.208;2023-09-19T08:56:29;21.40;;;10.10;;
75548;SDS011;64133;56.002;37.208;2023-09-19T09:01:34;20.77;;;9.38;;
75548;SDS011;64133;56.002;37.208;2023-09-19T09:06:39;19.62;;;9.18;;
75548;SDS011;64133;56.002;37.208;2023-09-19T09:11:43;25.60;;;10.00;;
75548;SDS011;64133;56.002;37.208;2023-09-19T09:16:48;24.72;;;10.55;;
75548;SDS011;64133;56.002;37.208;2023-09-19T09:21:53;15.38;;;9.48;;
75548;SDS011;64133;56.002;37.208;2023-09-19T09:26:57;15.28;;;8.63;;
75548;SDS011;64133;56.002;37.208;2023-09-19T09:32:17;16.37;;;8.35;;
75548;SDS011;64133;56.002;37.208;2023-09-19T09:37:25;21.40;;;10.10;;
75548;SDS011;64133;56.002;37.208;2023-09-19T09:42:30;17.90;;;9.58;;
75548;SDS011;64133;56.002;37.208;2023-09-19T09:47:41;19.55;;;10.13;;
75548;SDS011;64133;56.002;37.208;2023-09-19T09:52:48;21.97;;;9.25;;
75548;SDS011;64133;56.002;37.208;2023-09-19T09:58:03;24.90;;;11.75;;
75548;SDS011;64133;56.002;37.208;2023-09-19T10:03:21;21.17;;;10.78;;
75548;SDS011;64133;56.002;37.208;2023-09-19T10:08:26;21.30;;;11.25;;
75548;SDS011;64133;56.002;37.208;2023-09-19T10:13:30;17.45;;;10.32;;
75548;SDS011;64133;56.002;37.208;2023-09-19T10:18:36;19.57;;;10.93;;
75548;SDS011;64133;56.002;37.208;2023-09-19T10:23:41;20.52;;;9.70;;
75548;SDS011;64133;56.002;37.208;2023-09-19T10:28:46;18.12;;;9.23;;
75548;SDS011;64133;56.002;37.208;2023-09-19T10:33:51;17.77;;;9.85;;
75548;SDS011;64133;56.002;37.208;2023-09-19T10:38:56;21.52;;;9.68;;
75548;SDS011;64133;56.002;37.208;2023-09-19T10:44:01;18.35;;;9.63;;
75548;SDS011;64133;56.002;37.208;2023-09-19T10:49:06;15.68;;;8.80;;
75548;SDS011;64133;56.002;37.208;2023-09-19T10:54:14;18.62;;;10.78;;
75548;SDS011;64133;56.002;37.208;2023-09-19T10:59:19;14.78;;;9.25;;
75548;SDS011;64133;56.002;37.208;2023-09-19T11:04:27;17.45;;;10.18;;
75548;SDS011;64133;56.002;37.208;2023-09-19T11:09:45;22.95;;;9.98;;
75548;SDS011;64133;56.002;37.208;2023-09-19T11:14:50;19.10;;;10.18;;
75548;SDS011;64133;56.002;37.208;2023-09-19T11:25:42;18.12;;;10.40;;
75548;SDS011;64133;56.002;37.208;2023-09-19T11:30:50;19.80;;;9.93;;
75548;SDS011;64133;56.002;37.208;2023-09-19T11:36:02;16.23;;;8.70;;
75548;SDS011;64133;56.002;37.208;2023-09-19T11:46:53;28.05;;;10.68;;
75548;SDS011;64133;56.002;37.208;2023-09-19T11:51:57;15.15;;;8.55;;
75548;SDS011;64133;56.002;37.208;2023-09-19T11:57:03;21.30;;;8.88;;
75548;SDS011;64133;56.002;37.208;2023-09-19T12:02:08;20.23;;;9.63;;
75548;SDS011;64133;56.002;37.208;2023-09-19T12:07:13;19.82;;;9.60;;
75548;SDS011;64133;56.002;37.208;2023-09-19T12:12:20;15.28;;;8.98;;
75548;SDS011;64133;56.002;37.208;2023-09-19T12:17:24;16.80;;;9.93;;
75548;SDS011;64133;56.002;37.208;2023-09-19T12:22:41;15.23;;;8.65;;
75548;SDS011;64133;56.002;37.208;2023-09-19T12:27:47;13.68;;;7.97;;
75548;SDS011;64133;56.002;37.208;2023-09-19T12:32:51;14.43;;;8.35;;
75548;SDS011;64133;56.002;37.208;2023-09-19T12:37:55;15.70;;;8.58;;
75548;SDS011;64133;56.002;37.208;2023-09-19T12:43:02;13.25;;;8.38;;
75548;SDS011;64133;56.002;37.208;2023-09-19T12:48:20;16.75;;;8.30;;
75548;SDS011;64133;56.002;37.208;2023-09-19T12:53:26;19.45;;;9.65;;
75548;SDS011;64133;56.002;37.208;2023-09-19T12:58:31;16.85;;;9.93;;
75548;SDS011;64133;56.002;37.208;2023-09-19T13:03:35;15.38;;;7.87;;
75548;SDS011;64133;56.002;37.208;2023-09-19T13:08:40;16.30;;;9.48;;
75548;SDS011;64133;56.002;37.208;2023-09-19T13:13:45;17.65;;;8.20;;
75548;SDS011;64133;56.002;37.208;2023-09-19T13:18:50;17.45;;;7.67;;
75548;SDS011;64133;56.002;37.208;2023-09-19T13:23:55;15.75;;;7.70;;
75548;SDS011;64133;56.002;37.208;2023-09-19T13:28:59;16.65;;;7.83;;
75548;SDS011;64133;56.002;37.208;2023-09-19T13:34:04;16.55;;;8.50;;
75548;SDS011;64133;56.002;37.208;2023-09-19T13:39:09;15.05;;;7.22;;
75548;SDS011;64133;56.002;37.208;2023-09-19T13:44:14;13.90;;;7.35;;
75548;SDS011;64133;56.002;37.208;2023-09-19T13:49:19;11.88;;;6.72;;
75548;SDS011;64133;56.002;37.208;2023-09-19T13:54:24;13.83;;;6.95;;
75548;SDS011;64133;56.002;37.208;2023-09-19T13:59:28;16.20;;;6.20;;
75548;SDS011;64133;56.002;37.208;2023-09-19T14:04:33;11.12;;;6.12;;
75548;SDS011;64133;56.002;37.208;2023-09-19T14:09:38;13.70;;;7.50;;
75548;SDS011;64133;56.002;37.208;2023-09-19T14:14:42;16.97;;;7.17;;
75548;SDS011;64133;56.002;37.208;2023-09-19T14:19:47;13.13;;;6.85;;
75548;SDS011;64133;56.002;37.208;2023-09-19T14:24:52;18.23;;;7.05;;
75548;SDS011;64133;56.002;37.208;2023-09-19T14:29:57;14.10;;;7.67;;
75548;SDS011;64133;56.002;37.208;2023-09-19T14:35:02;17.25;;;7.67;;
75548;SDS011;64133;56.002;37.208;2023-09-19T14:40:08;14.23;;;7.42;;
75548;SDS011;64133;56.002;37.208;2023-09-19T14:45:13;16.37;;;7.08;;
75548;SDS011;64133;56.002;37.208;2023-09-19T14:50:19;11.57;;;9.28;;
75548;SDS011;64133;56.002;37.208;2023-09-19T14:55:24;11.80;;;6.83;;
75548;SDS011;64133;56.002;37.208;2023-09-19T15:00:28;18.27;;;7.92;;
75548;SDS011;64133;56.002;37.208;2023-09-19T15:05:33;17.42;;;7.03;;
75548;SDS011;64133;56.002;37.208;2023-09-19T15:10:38;10.85;;;5.33;;
75548;SDS011;64133;56.002;37.208;2023-09-19T15:15:43;12.28;;;5.85;;
75548;SDS011;64133;56.002;37.208;2023-09-19T15:20:48;10.18;;;6.15;;
75548;SDS011;64133;56.002;37.208;2023-09-19T15:25:52;10.25;;;6.10;;
75548;SDS011;64133;56.002;37.208;2023-09-19T15:31:03;10.03;;;6.85;;
75548;SDS011;64133;56.002;37.208;2023-09-19T15:36:08;14.25;;;6.40;;
75548;SDS011;64133;56.002;37.208;2023-09-19T15:41:12;11.20;;;5.75;;
75548;SDS011;64133;56.002;37.208;2023-09-19T15:46:17;11.97;;;6.05;;
75548;SDS011;64133;56.002;37.208;2023-09-19T15:51:22;12.00;;;6.28;;
75548;SDS011;64133;56.002;37.208;2023-09-19T15:56:26;14.93;;;6.05;;
75548;SDS011;64133;56.002;37.208;2023-09-19T16:01:31;12.82;;;7.03;;
75548;SDS011;64133;56.002;37.208;2023-09-19T16:06:38;17.02;;;6.67;;
75548;SDS011;64133;56.002;37.208;2023-09-19T16:11:43;13.15;;;6.40;;
75548;SDS011;64133;56.002;37.208;2023-09-19T16:16:48;12.88;;;6.25;;
75548;SDS011;64133;56.002;37.208;2023-09-19T16:21:52;12.70;;;6.87;;
75548;SDS011;64133;56.002;37.208;2023-09-19T16:26:57;12.85;;;6.25;;
75548;SDS011;64133;56.002;37.208;2023-09-19T16:32:02;12.43;;;5.90;;
75548;SDS011;64133;56.002;37.208;2023-09-19T16:37:07;11.12;;;6.83;;
75548;SDS011;64133;56.002;37.208;2023-09-19T16:42:12;13.65;;;6.20;;
75548;SDS011;64133;56.002;37.208;2023-09-19T16:47:17;13.15;;;6.60;;
75548;SDS011;64133;56.002;37.208;2023-09-19T16:52:27;11.20;;;6.42;;
75548;SDS011;64133;56.002;37.208;2023-09-19T16:57:35;12.60;;;7.42;;
75548;SDS011;64133;56.002;37.208;2023-09-19T17:02:40;12.18;;;6.30;;
75548;SDS011;64133;56.002;37.208;2023-09-19T17:07:47;14.85;;;7.55;;
75548;SDS011;64133;56.002;37.208;2023-09-19T17:12:52;13.18;;;7.78;;
75548;SDS011;64133;56.002;37.208;2023-09-19T17:18:00;13.65;;;7.55;;
75548;SDS011;64133;56.002;37.208;2023-09-19T17:23:02;11.97;;;7.05;;
75548;SDS011;64133;56.002;37.208;2023-09-19T17:28:07;14.65;;;6.60;;
75548;SDS011;64133;56.002;37.208;2023-09-19T17:33:12;12.88;;;5.85;;
75548;SDS011;64133;56.002;37.208;2023-09-19T17:38:17;10.32;;;6.35;;
75548;SDS011;64133;56.002;37.208;2023-09-19T17:43:22;7.83;;;5.08;;
75548;SDS011;64133;56.002;37.208;2023-09-19T17:48:27;8.70;;;5.08;;
75548;SDS011;64133;56.002;37.208;2023-09-19T17:53:32;11.97;;;4.60;;
75548;SDS011;64133;56.002;37.208;2023-09-19T17:58:37;10.55;;;5.33;;
75548;SDS011;64133;56.002;37.208;2023-09-19T18:03:41;7.60;;;4.50;;
75548;SDS011;64133;56.002;37.208;2023-09-19T18:08:46;7.35;;;4.75;;
75548;SDS011;64133;56.002;37.208;2023-09-19T18:13:51;9.48;;;5.00;;
75548;SDS011;64133;56.002;37.208;2023-09-19T18:18:58;7.12;;;4.08;;
75548;SDS011;64133;56.002;37.208;2023-09-19T18:24:07;12.23;;;5.08;;
75548;SDS011;64133;56.002;37.208;2023-09-19T18:29:11;11.55;;;5.65;;
75548;SDS011;64133;56.002;37.208;2023-09-19T18:34:16;12.35;;;5.97;;
75548;SDS011;64133;56.002;37.208;2023-09-19T18:39:21;10.05;;;5.42;;
75548;SDS011;64133;56.002;37.208;2023-09-19T18:44:26;9.63;;;5.40;;
75548;SDS011;64133;56.002;37.208;2023-09-19T18:49:31;11.40;;;5.67;;
75548;SDS011;64133;56.002;37.208;2023-09-19T18:54:36;8.75;;;5.35;;
75548;SDS011;64133;56.002;37.208;2023-09-19T18:59:41;9.10;;;5.25;;
75548;SDS011;64133;56.002;37.208;2023-09-19T19:04:45;9.03;;;6.28;;
75548;SDS011;64133;56.002;37.208;2023-09-19T19:09:50;12.07;;;6.22;;
75548;SDS011;64133;56.002;37.208;2023-09-19T19:14:55;10.95;;;5.37;;
75548;SDS011;64133;56.002;37.208;2023-09-19T19:20:00;12.50;;;5.65;;
75548;SDS011;64133;56.002;37.208;2023-09-19T19:25:05;10.75;;;5.58;;
75548;SDS011;64133;56.002;37.208;2023-09-19T19:30:10;11.08;;;6.17;;
75548;SDS011;64133;56.002;37.208;2023-09-19T19:35:15;9.73;;;5.55;;
75548;SDS011;64133;56.002;37.208;2023-09-19T19:40:20;16.30;;;6.60;;
75548;SDS011;64133;56.002;37.208;2023-09-19T19:45:25;10.72;;;5.12;;
75548;SDS011;64133;56.002;37.208;2023-09-19T19:50:39;10.85;;;5.40;;
75548;SDS011;64133;56.002;37.208;2023-09-19T19:55:44;9.20;;;5.60;;
75548;SDS011;64133;56.002;37.208;2023-09-19T20:00:49;11.00;;;6.08;;
75548;SDS011;64133;56.002;37.208;2023-09-19T20:05:54;10.10;;;5.78;;
75548;SDS011;64133;56.002;37.208;2023-09-19T20:11:01;16.82;;;6.42;;
75548;SDS011;64133;56.002;37.208;2023-09-19T20:16:06;10.15;;;5.75;;
75548;SDS011;64133;56.002;37.208;2023-09-19T20:21:11;8.90;;;5.47;;
75548;SDS011;64133;56.002;37.208;2023-09-19T20:26:16;10.65;;;5.83;;
75548;SDS011;64133;56.002;37.208;2023-09-19T20:31:21;8.23;;;5.42;;
75548;SDS011;64133;56.002;37.208;2023-09-19T20:36:25;10.00;;;5.08;;
75548;SDS011;64133;56.002;37.208;2023-09-19T20:41:30;10.13;;;5.10;;
75548;SDS011;64133;56.002;37.208;2023-09-19T20:46:37;10.98;;;5.25;;
75548;SDS011;64133;56.002;37.208;2023-09-19T20:51:42;8.08;;;4.47;;
75548;SDS011;64133;56.002;37.208;2023-09-19T20:56:47;9.80;;;5.83;;
75548;SDS011;64133;56.002;37.208;2023-09-19T21:01:51;9.73;;;5.53;;
75548;SDS011;64133;56.002;37.208;2023-09-19T21:06:56;8.58;;;5.62;;
75548;SDS011;64133;56.002;37.208;2023-09-19T21:12:01;10.43;;;5.97;;
75548;SDS011;64133;56.002;37.208;2023-09-19T21:17:06;7.92;;;4.92;;
75548;SDS011;64133;56.002;37.208;2023-09-19T21:22:10;9.83;;;5.70;;
75548;SDS011;64133;56.002;37.208;2023-09-19T21:27:15;8.13;;;4.70;;
75548;SDS011;64133;56.002;37.208;2023-09-19T21:32:20;8.80;;;5.33;;
75548;SDS011;64133;56.002;37.208;2023-09-19T21:37:25;11.08;;;4.87;;
75548;SDS011;64133;56.002;37.208;2023-09-19T21:42:30;10.18;;;5.47;;
75548;SDS011;64133;56.002;37.208;2023-09-19T21:47:35;10.98;;;5.60;;
75548;SDS011;64133;56.002;37.208;2023-09-19T21:52:39;9.85;;;4.90;;
75548;SDS011;64133;56.002;37.208;2023-09-19T21:57:44;10.30;;;5.22;;
75548;SDS011;64133;56.002;37.208;2023-09-19T22:02:48;8.33;;;4.75;;
75548;SDS011;64133;56.002;37.208;2023-09-19T22:07:54;7.20;;;4.58;;
75548;SDS011;64133;56.002;37.208;2023-09-19T22:12:59;12.10;;;5.22;;
75548;SDS011;64133;56.002;37.208;2023-09-19T22:18:04;8.85;;;4.58;;
75548;SDS011;64133;56.002;37.208;2023-09-19T22:23:08;7.83;;;5.35;;
75548;SDS011;64133;56.002;37.208;2023-09-19T22:28:13;8.30;;;4.53;;
75548;SDS011;64133;56.002;37.208;2023-09-19T22:33:18;7.83;;;4.17;;
75548;SDS011;64133;56.002;37.208;2023-09-19T22:38:23;7.37;;;4.47;;
75548;SDS011;64133;56.002;37.208;2023-09-19T22:43:28;8.98;;;4.62;;
75548;SDS011;64133;56.002;37.208;2023-09-19T22:48:35;7.75;;;4.60;;
75548;SDS011;64133;56.002;37.208;2023-09-19T22:53:40;8.00;;;5.03;;
75548;SDS011;64133;56.002;37.208;2023-09-19T22:58:45;8.93;;;4.67;;
75548;SDS011;64133;56.002;37.208;2023-09-19T23:03:50;9.03;;;4.70;;
75548;SDS011;64133;56.002;37.208;2023-09-19T23:08:54;9.95;;;5.35;;
75548;SDS011;64133;56.002;37.208;2023-09-19T23:13:59;7.95;;;4.35;;
75548;SDS011;64133;56.002;37.208;2023-09-19T23:19:04;8.20;;;4.30;;
75548;SDS011;64133;56.002;37.208;2023-09-19T23:24:09;10.82;;;4.65;;
75548;SDS011;64133;56.002;37.208;2023-09-19T23:29:14;8.63;;;4.55;;
75548;SDS011;64133;56.002;37.208;2023-09-19T23:34:18;8.88;;;4.80;;
75548;SDS011;64133;56.002;37.208;2023-09-19T23:39:23;7.70;;;4.10;;
75548;SDS011;64133;56.002;37.208;2023-09-19T23:44:28;6.95;;;4.15;;
75548;SDS011;64133;56.002;37.208;2023-09-19T23:49:33;9.63;;;4.58;;
75548;SDS011;64133;56.002;37.208;2023-09-19T23:54:37;8.70;;;5.10;;
75548;SDS011;64133;56.002;37.208;2023-09-19T23:59:42;7.75;;;4.65;;
